createdAt,value
2023-10-03T00:00:58.960Z,1.92
2023-10-03T00:03:28.584Z,1.90
2023-10-03T00:05:58.811Z,1.20
2023-10-03T00:08:28.576Z,1.60
2023-10-03T00:10:58.400Z,1.70
2023-10-03T00:13:27.104Z,1.33
2023-10-03T00:15:55.781Z,1.45
2023-10-03T00:18:25.205Z,1.70
2023-10-03T00:20:54.015Z,1.33
2023-10-03T00:23:25.300Z,1.77
2023-10-03T00:25:55.372Z,1.37
2023-10-03T00:28:24.104Z,1.23
2023-10-03T00:30:52.850Z,1.40
2023-10-03T00:33:26.288Z,1.58
2023-10-03T00:35:55.179Z,1.77
2023-10-03T00:38:25.590Z,1.45
2023-10-03T00:40:56.955Z,1.50
2023-10-03T00:43:26.928Z,1.60
2023-10-03T00:45:55.845Z,1.23
2023-10-03T00:48:25.084Z,1.25
2023-10-03T00:50:56.817Z,1.65
2023-10-03T00:53:27.223Z,1.17
2023-10-03T00:56:00.430Z,1.77
2023-10-03T00:58:33.708Z,1.50
2023-10-03T01:01:04.609Z,1.37
2023-10-03T01:03:38.471Z,1.55
2023-10-03T01:06:10.242Z,1.50
2023-10-03T01:08:42.481Z,1.58
2023-10-03T01:11:17.437Z,1.58
2023-10-03T01:13:48.712Z,1.23
2023-10-03T01:16:26.567Z,1.35
2023-10-03T01:19:00.328Z,2.45
2023-10-03T01:21:30.046Z,1.40
2023-10-03T01:24:00.553Z,1.65
2023-10-03T01:26:29.587Z,1.52
2023-10-03T01:28:58.597Z,1.75
2023-10-03T01:31:28.320Z,1.50
2023-10-03T01:33:57.282Z,1.48
2023-10-03T01:36:30.501Z,1.45
2023-10-03T01:39:01.134Z,1.60
2023-10-03T01:41:29.908Z,2.10
2023-10-03T01:43:59.181Z,1.60
2023-10-03T01:46:28.127Z,1.70
2023-10-03T01:48:58.190Z,1.80
2023-10-03T01:51:28.064Z,1.73
2023-10-03T01:53:58.348Z,1.98
2023-10-03T01:56:32.450Z,2.20
2023-10-03T01:59:02.257Z,1.73
2023-10-03T02:01:31.522Z,1.80
2023-10-03T02:04:00.846Z,2.42
2023-10-03T02:06:31.013Z,1.98
2023-10-03T02:09:01.274Z,1.70
2023-10-03T02:11:33.431Z,2.05
2023-10-03T02:14:07.725Z,2.17
2023-10-03T02:16:42.555Z,1.70
2023-10-03T02:19:12.290Z,2.00
2023-10-03T02:21:43.879Z,1.67
2023-10-03T02:24:14.305Z,1.85
2023-10-03T02:26:46.594Z,2.35
2023-10-03T02:29:15.434Z,2.55
2023-10-03T02:31:45.850Z,1.60
2023-10-03T02:34:16.659Z,2.00
2023-10-03T02:36:49.704Z,1.95
2023-10-03T02:39:26.122Z,1.92
2023-10-03T02:41:56.750Z,1.60
2023-10-03T02:46:59.438Z,1.40
2023-10-03T02:49:28.852Z,1.70
2023-10-03T02:52:01.097Z,1.40
2023-10-03T02:54:33.562Z,1.30
2023-10-03T02:57:03.826Z,1.60
2023-10-03T02:59:32.476Z,1.98
2023-10-03T03:02:01.289Z,1.55
2023-10-03T03:04:30.951Z,2.00
2023-10-03T03:07:05.534Z,2.08
2023-10-03T03:09:37.592Z,1.95
2023-10-03T03:12:08.652Z,1.83
2023-10-03T03:14:38.254Z,2.03
2023-10-03T03:17:14.931Z,2.00
2023-10-03T03:19:46.138Z,1.70
2023-10-03T03:22:17.677Z,1.83
2023-10-03T03:24:52.903Z,1.73
2023-10-03T03:27:27.405Z,1.67
2023-10-03T03:30:24.197Z,1.90
2023-10-03T03:32:52.903Z,1.92
2023-10-03T03:35:25.779Z,1.55
2023-10-03T03:37:57.337Z,1.67
2023-10-03T03:40:33.052Z,1.95
2023-10-03T03:43:04.940Z,1.62
2023-10-03T03:45:33.992Z,2.20
2023-10-03T03:48:02.920Z,2.00
2023-10-03T03:50:35.458Z,1.67
2023-10-03T03:53:05.282Z,1.58
2023-10-03T03:55:35.282Z,1.75
2023-10-03T03:58:08.849Z,1.60
2023-10-03T04:00:39.933Z,2.28
2023-10-03T04:03:10.452Z,1.77
2023-10-03T04:05:40.639Z,1.40
2023-10-03T04:08:09.822Z,1.92
2023-10-03T04:10:38.630Z,2.05
2023-10-03T04:13:11.565Z,1.70
2023-10-03T04:15:41.953Z,2.35
2023-10-03T04:18:11.116Z,1.23
2023-10-03T04:20:42.447Z,2.00
2023-10-03T04:23:12.498Z,1.80
2023-10-03T04:25:41.528Z,1.73
2023-10-03T04:28:12.930Z,1.48
2023-10-03T04:30:42.588Z,1.92
2023-10-03T04:33:12.666Z,2.53
2023-10-03T04:35:42.937Z,1.73
2023-10-03T04:38:15.836Z,1.75
2023-10-03T04:40:46.343Z,1.55
2023-10-03T04:43:17.074Z,1.90
2023-10-03T04:45:46.414Z,1.90
2023-10-03T04:48:15.238Z,1.73
2023-10-03T04:50:44.054Z,1.62
2023-10-03T04:53:15.865Z,1.30
2023-10-03T04:55:45.932Z,1.50
2023-10-03T04:58:16.962Z,2.83
2023-10-03T05:00:48.950Z,1.98
2023-10-03T05:03:20.937Z,1.98
2023-10-03T05:05:51.275Z,1.90
2023-10-03T05:08:20.422Z,1.90
2023-10-03T05:10:49.305Z,1.67
2023-10-03T05:13:20.947Z,1.73
2023-10-03T05:15:49.880Z,1.58
2023-10-03T05:18:18.698Z,1.77
2023-10-03T05:20:47.517Z,1.83
2023-10-03T05:23:16.935Z,2.12
2023-10-03T05:25:45.630Z,1.25
2023-10-03T05:28:14.426Z,1.95
2023-10-03T05:30:44.798Z,3.70
2023-10-03T05:33:13.662Z,1.67
2023-10-03T05:35:42.541Z,1.37
2023-10-03T05:38:11.614Z,2.03
2023-10-03T05:40:41.059Z,1.42
2023-10-03T05:43:10.151Z,1.65
2023-10-03T05:45:39.105Z,1.48
2023-10-03T05:48:09.642Z,2.35
2023-10-03T05:50:38.580Z,1.67
2023-10-03T05:53:08.482Z,1.58
2023-10-03T05:55:37.953Z,1.87
2023-10-03T05:58:08.753Z,2.33
2023-10-03T06:00:37.580Z,2.25
2023-10-03T06:03:06.774Z,1.92
2023-10-03T06:05:37.311Z,1.80
2023-10-03T06:08:07.062Z,1.87
2023-10-03T06:10:35.788Z,1.67
2023-10-03T06:13:06.987Z,1.83
2023-10-03T06:15:37.419Z,3.08
2023-10-03T06:18:06.620Z,1.90
2023-10-03T06:20:35.968Z,2.42
2023-10-03T06:23:06.454Z,2.00
2023-10-03T06:25:35.155Z,3.00
2023-10-03T06:28:03.951Z,2.12
2023-10-03T06:30:38.452Z,2.10
2023-10-03T06:33:08.678Z,2.60
2023-10-03T06:35:39.975Z,1.87
2023-10-03T06:38:10.054Z,2.67
2023-10-03T06:40:39.119Z,3.33
2023-10-03T06:43:07.917Z,2.25
2023-10-03T06:45:36.775Z,2.08
2023-10-03T06:48:07.196Z,2.50
2023-10-03T06:50:35.961Z,1.80
2023-10-03T06:53:06.605Z,1.67
2023-10-03T06:55:37.615Z,2.03
2023-10-03T06:58:06.598Z,2.00
2023-10-03T07:00:35.306Z,2.25
2023-10-03T07:03:05.025Z,2.53
2023-10-03T07:05:34.868Z,2.17
2023-10-03T07:08:05.025Z,2.70
2023-10-03T07:10:34.235Z,2.47
2023-10-03T07:13:05.736Z,1.90
2023-10-03T07:15:34.724Z,1.80
2023-10-03T07:18:04.969Z,1.85
2023-10-03T07:20:38.032Z,1.50
2023-10-03T07:23:06.781Z,2.50
2023-10-03T07:25:35.741Z,2.20
2023-10-03T07:28:06.484Z,2.30
2023-10-03T07:30:35.917Z,2.83
2023-10-03T07:33:06.497Z,2.17
2023-10-03T07:35:38.753Z,1.83
2023-10-03T07:38:07.869Z,2.22
2023-10-03T07:40:36.846Z,2.15
2023-10-03T07:43:10.443Z,3.53
2023-10-03T07:45:39.462Z,2.15
2023-10-03T07:48:08.604Z,1.98
2023-10-03T07:50:38.706Z,1.67
2023-10-03T07:53:12.433Z,2.03
2023-10-03T07:55:42.334Z,2.03
2023-10-03T07:58:15.564Z,1.98
2023-10-03T08:00:45.943Z,1.83
2023-10-03T08:03:15.386Z,2.22
2023-10-03T08:05:44.490Z,2.45
2023-10-03T08:08:13.266Z,1.60
2023-10-03T08:10:47.802Z,2.12
2023-10-03T08:13:20.294Z,1.90
2023-10-03T08:15:49.284Z,1.75
2023-10-03T08:18:20.043Z,2.08
2023-10-03T08:20:54.902Z,1.90
2023-10-03T08:23:24.178Z,2.25
2023-10-03T08:25:57.760Z,1.85
2023-10-03T08:28:29.744Z,2.28
2023-10-03T08:31:07.091Z,2.45
2023-10-03T08:33:37.682Z,1.87
2023-10-03T08:38:45.631Z,2.17
2023-10-03T08:41:17.907Z,2.40
2023-10-03T08:43:56.997Z,2.28
2023-10-03T08:46:27.088Z,1.75
2023-10-03T08:49:01.978Z,2.20
2023-10-03T08:51:34.030Z,1.95
2023-10-03T08:54:10.471Z,2.12
2023-10-03T08:56:41.349Z,1.48
2023-10-03T08:59:16.928Z,1.70
2023-10-03T09:01:47.808Z,2.00
2023-10-03T09:04:18.720Z,2.08
2023-10-03T09:06:48.255Z,1.45
2023-10-03T09:09:17.969Z,1.58
2023-10-03T09:11:52.407Z,1.87
2023-10-03T09:14:22.992Z,2.10
2023-10-03T09:16:54.019Z,1.58
2023-10-03T09:19:25.815Z,1.37
2023-10-03T09:21:55.140Z,1.30
2023-10-03T09:24:24.769Z,1.23
2023-10-03T09:26:56.242Z,2.20
2023-10-03T09:29:34.004Z,2.15
2023-10-03T09:32:09.346Z,2.00
2023-10-03T09:34:41.956Z,2.35
2023-10-03T09:37:11.201Z,1.92
2023-10-03T09:39:50.764Z,1.60
2023-10-03T09:42:24.775Z,1.48
2023-10-03T09:44:59.398Z,2.17
2023-10-03T09:47:33.519Z,2.00
2023-10-03T09:50:07.672Z,2.40
2023-10-03T09:52:39.281Z,1.33
2023-10-03T09:55:22.924Z,1.25
2023-10-03T09:57:56.089Z,1.58
2023-10-03T10:00:40.487Z,1.95
2023-10-03T10:03:12.689Z,1.52
2023-10-03T10:05:47.588Z,1.20
2023-10-03T10:08:23.602Z,1.70
2023-10-03T10:11:08.625Z,1.23
2023-10-03T10:13:38.617Z,1.75
2023-10-03T10:16:16.831Z,1.15
2023-10-03T10:19:01.627Z,1.08
2023-10-03T10:21:33.125Z,1.17
2023-10-03T10:24:29.794Z,1.00
2023-10-03T10:27:01.242Z,1.30
2023-10-03T10:29:35.683Z,0.98
2023-10-03T10:32:20.223Z,1.05
2023-10-03T10:34:48.352Z,1.17
2023-10-03T10:37:23.519Z,1.52
2023-10-03T10:40:18.770Z,1.25
2023-10-03T10:42:58.321Z,1.10
2023-10-03T10:45:26.790Z,1.35
2023-10-03T10:47:57.995Z,1.17
2023-10-03T10:50:28.802Z,1.85
2023-10-03T10:52:59.181Z,0.90
2023-10-03T10:58:09.353Z,1.10
2023-10-03T11:00:38.997Z,1.08
2023-10-03T11:03:09.684Z,1.12
2023-10-03T11:05:47.146Z,1.02
2023-10-03T11:08:16.107Z,1.33
2023-10-03T11:10:53.711Z,1.50
2023-10-03T11:13:23.167Z,0.98
2023-10-03T11:15:52.500Z,0.68
2023-10-03T11:18:29.896Z,0.70
2023-10-03T11:20:59.472Z,1.10
2023-10-03T11:23:28.284Z,1.75
2023-10-03T11:25:57.978Z,0.90
2023-10-03T11:28:29.761Z,0.80
2023-10-03T11:31:05.940Z,0.93
2023-10-03T11:33:45.996Z,0.75
2023-10-03T11:36:16.692Z,1.02
2023-10-03T11:41:15.253Z,1.17
2023-10-03T11:43:47.445Z,0.95
2023-10-03T11:46:17.212Z,0.98
2023-10-03T11:48:47.901Z,0.70
2023-10-03T11:53:46.935Z,0.50
2023-10-03T11:56:15.648Z,0.80
2023-10-03T11:58:44.535Z,0.68
2023-10-03T12:01:13.418Z,0.95
2023-10-03T12:03:42.567Z,0.77
2023-10-03T12:06:12.728Z,0.47
2023-10-03T12:08:43.342Z,0.95
2023-10-03T12:11:15.932Z,1.37
2023-10-03T12:13:44.778Z,0.55
2023-10-03T12:16:13.761Z,1.30
2023-10-03T12:18:42.425Z,1.30
2023-10-03T12:21:12.708Z,1.35
2023-10-03T12:23:42.204Z,0.95
2023-10-03T12:26:24.508Z,0.90
2023-10-03T12:29:00.001Z,0.55
2023-10-03T12:31:29.205Z,1.58
2023-10-03T12:33:59.172Z,0.90
2023-10-03T12:36:30.990Z,0.68
2023-10-03T12:39:00.945Z,0.80
2023-10-03T12:41:31.376Z,1.17
2023-10-03T12:44:00.335Z,1.00
2023-10-03T12:46:29.047Z,0.62
2023-10-03T12:48:57.710Z,0.80
2023-10-03T12:51:27.425Z,1.10
2023-10-03T12:53:58.048Z,0.68
2023-10-03T12:56:28.481Z,0.68
2023-10-03T12:58:58.804Z,0.90
2023-10-03T13:03:57.035Z,0.70
2023-10-03T13:06:26.844Z,1.20
2023-10-03T13:08:57.134Z,0.70
2023-10-03T13:11:25.850Z,0.80
2023-10-03T13:13:55.853Z,0.50
2023-10-03T13:16:25.867Z,0.50
2023-10-03T13:18:54.895Z,1.12
2023-10-03T13:21:24.550Z,0.70
2023-10-03T13:23:53.252Z,0.73
2023-10-03T13:26:23.585Z,0.60
2023-10-03T13:28:53.306Z,0.57
2023-10-03T13:31:22.624Z,0.88
2023-10-03T13:33:51.961Z,1.10
2023-10-03T13:36:21.730Z,0.50
2023-10-03T13:38:51.894Z,0.52
2023-10-03T13:41:20.842Z,0.52
2023-10-03T13:43:51.039Z,0.70
2023-10-03T13:46:20.525Z,1.17
2023-10-03T13:48:52.298Z,0.53
2023-10-03T13:51:21.852Z,0.75
2023-10-03T13:53:51.274Z,0.50
2023-10-03T13:56:20.221Z,0.60
2023-10-03T13:58:51.162Z,1.08
2023-10-03T14:01:20.239Z,0.88
2023-10-03T14:03:51.972Z,0.80
2023-10-03T14:06:22.087Z,0.60
2023-10-03T14:08:51.215Z,0.73
2023-10-03T14:11:23.373Z,0.90
2023-10-03T14:13:54.836Z,0.70
2023-10-03T14:16:24.061Z,0.50
2023-10-03T14:18:53.482Z,0.70
2023-10-03T14:21:31.924Z,1.05
2023-10-03T14:24:05.155Z,0.55
2023-10-03T14:26:33.803Z,0.70
2023-10-03T14:29:05.459Z,0.93
2023-10-03T14:31:34.470Z,0.80
2023-10-03T14:34:03.232Z,0.73
2023-10-03T14:36:33.085Z,0.52
2023-10-03T14:39:02.268Z,0.60
2023-10-03T14:41:31.507Z,0.65
2023-10-03T14:44:01.017Z,1.10
2023-10-03T14:46:31.391Z,0.52
2023-10-03T14:49:00.207Z,0.52
2023-10-03T14:51:29.025Z,0.60
2023-10-03T14:53:58.097Z,0.30
2023-10-03T14:56:26.731Z,0.68
2023-10-03T14:58:55.363Z,0.65
2023-10-03T15:01:24.644Z,1.12
2023-10-03T15:03:56.572Z,0.80
2023-10-03T15:06:25.655Z,0.62
2023-10-03T15:08:54.900Z,0.50
2023-10-03T15:11:23.614Z,0.70
2023-10-03T15:13:53.020Z,0.70
2023-10-03T15:16:21.795Z,0.70
2023-10-03T15:18:50.482Z,0.93
2023-10-03T15:21:20.950Z,0.90
2023-10-03T15:23:50.480Z,0.80
2023-10-03T15:26:19.424Z,0.80
2023-10-03T15:28:49.706Z,0.95
2023-10-03T15:31:23.940Z,2.67
2023-10-03T15:33:53.728Z,1.27
2023-10-03T15:36:24.341Z,0.88
2023-10-03T15:38:53.453Z,0.82
2023-10-03T15:41:22.243Z,1.00
2023-10-03T15:43:50.919Z,1.10
2023-10-03T15:46:20.094Z,0.93
2023-10-03T15:48:48.869Z,0.60
2023-10-03T15:51:17.952Z,0.80
2023-10-03T15:53:48.634Z,0.93
2023-10-03T15:56:18.616Z,0.65
2023-10-03T15:58:47.810Z,0.60
2023-10-03T16:01:17.372Z,0.80
2023-10-03T16:03:48.167Z,0.85
2023-10-03T16:06:18.334Z,0.75
2023-10-03T16:08:51.011Z,0.55
2023-10-03T16:11:20.455Z,1.25
2023-10-03T16:13:50.202Z,0.82
2023-10-03T16:16:19.598Z,1.05
2023-10-03T16:18:48.830Z,1.25
2023-10-03T16:21:19.071Z,1.00
2023-10-03T16:23:50.070Z,0.82
2023-10-03T16:26:20.089Z,1.17
2023-10-03T16:28:51.233Z,0.95
2023-10-03T16:31:21.425Z,0.90
2023-10-03T16:33:51.662Z,1.05
2023-10-03T16:38:52.717Z,1.12
2023-10-03T16:41:23.402Z,0.98
2023-10-03T16:43:52.365Z,1.02
2023-10-03T16:46:23.488Z,1.00
2023-10-03T16:48:53.434Z,1.17
2023-10-03T16:51:24.782Z,0.80
2023-10-03T16:53:56.874Z,1.30
2023-10-03T16:56:26.977Z,1.42
2023-10-03T16:58:56.786Z,1.20
2023-10-03T17:01:26.792Z,0.98
2023-10-03T17:03:59.148Z,1.00
2023-10-03T17:06:29.799Z,0.98
2023-10-03T17:09:02.903Z,1.15
2023-10-03T17:11:33.443Z,1.45
2023-10-03T17:14:03.895Z,1.00
2023-10-03T17:16:34.950Z,1.37
2023-10-03T17:19:09.476Z,0.98
2023-10-03T17:21:39.222Z,1.05
2023-10-03T17:24:13.691Z,1.08
2023-10-03T17:26:48.178Z,1.10
2023-10-03T17:29:23.192Z,1.45
2023-10-03T17:31:55.813Z,1.65
2023-10-03T17:34:27.568Z,1.08
2023-10-03T17:39:30.043Z,1.20
2023-10-03T17:42:00.421Z,1.10
2023-10-03T17:44:32.610Z,1.25
2023-10-03T17:47:03.238Z,1.55
2023-10-03T17:49:36.982Z,1.25
2023-10-03T17:52:08.918Z,1.37
2023-10-03T17:54:41.322Z,1.10
2023-10-03T17:57:11.919Z,1.42
2023-10-03T18:00:00.347Z,1.12
2023-10-03T18:02:37.637Z,0.77
2023-10-03T18:05:11.201Z,1.00
2023-10-03T18:07:46.005Z,1.30
2023-10-03T18:10:24.378Z,2.08
2023-10-03T18:13:01.108Z,1.30
2023-10-03T18:15:31.171Z,1.35
2023-10-03T18:18:02.288Z,1.13
2023-10-03T18:20:39.819Z,1.83
2023-10-03T18:23:10.609Z,1.30
2023-10-03T18:25:43.966Z,1.40
2023-10-03T18:28:16.411Z,1.95
2023-10-03T18:30:48.355Z,0.88
2023-10-03T18:33:20.266Z,1.08
2023-10-03T18:35:51.450Z,1.12
2023-10-03T18:38:29.339Z,1.10
2023-10-03T18:41:05.390Z,1.35
2023-10-03T18:43:38.482Z,1.77
2023-10-03T18:46:11.702Z,1.35
2023-10-03T18:48:42.623Z,1.45
2023-10-03T18:51:14.081Z,1.25
2023-10-03T18:53:48.477Z,1.45
2023-10-03T18:56:29.023Z,1.48
2023-10-03T18:59:04.112Z,1.58
2023-10-03T19:01:49.522Z,1.20
2023-10-03T19:04:28.958Z,1.55
2023-10-03T19:07:02.085Z,1.15
2023-10-03T19:09:38.346Z,1.62
2023-10-03T19:12:14.896Z,1.40
2023-10-03T19:14:50.451Z,1.33
2023-10-03T19:17:21.447Z,1.23
2023-10-03T19:19:58.293Z,1.48
2023-10-03T19:22:30.436Z,1.30
2023-10-03T19:25:06.571Z,1.60
2023-10-03T19:27:42.543Z,1.62
2023-10-03T19:30:20.168Z,1.67
2023-10-03T19:32:51.583Z,2.12
2023-10-03T19:35:23.122Z,1.50
2023-10-03T19:37:57.426Z,1.42
2023-10-03T19:40:31.435Z,1.15
2023-10-03T19:43:09.037Z,1.67
2023-10-03T19:45:44.351Z,1.30
2023-10-03T19:48:22.981Z,1.95
2023-10-03T19:51:07.733Z,1.20
2023-10-03T19:53:39.637Z,1.55
2023-10-03T19:56:17.736Z,1.20
2023-10-03T19:58:53.686Z,1.48
2023-10-03T20:01:25.924Z,1.80
2023-10-03T20:03:58.852Z,1.75
2023-10-03T20:06:33.216Z,1.10
2023-10-03T20:09:09.441Z,1.37
2023-10-03T20:11:41.196Z,1.17
2023-10-03T20:14:16.591Z,1.48
2023-10-03T20:16:47.763Z,1.20
2023-10-03T20:19:21.595Z,1.20
2023-10-03T20:21:56.059Z,1.25
2023-10-03T20:24:27.766Z,1.52
2023-10-03T20:26:57.839Z,1.55
2023-10-03T20:32:01.798Z,1.12
2023-10-03T20:34:33.155Z,1.80
2023-10-03T20:37:04.250Z,1.20
2023-10-03T20:39:38.724Z,1.40
2023-10-03T20:42:08.110Z,1.10
2023-10-03T20:44:39.739Z,1.12
2023-10-03T20:47:09.610Z,1.12
2023-10-03T20:49:43.009Z,1.20
2023-10-03T20:52:12.176Z,1.20
2023-10-03T20:54:41.179Z,1.52
2023-10-03T20:57:09.950Z,1.70
2023-10-03T20:59:40.124Z,1.40
2023-10-03T21:02:10.004Z,1.48
2023-10-03T21:04:38.915Z,1.20
2023-10-03T21:07:08.040Z,1.17
2023-10-03T21:09:37.122Z,1.05
2023-10-03T21:12:07.131Z,1.17
2023-10-03T21:14:35.932Z,1.97
2023-10-03T21:17:07.980Z,1.35
2023-10-03T21:19:38.339Z,1.33
2023-10-03T21:22:07.999Z,1.83
2023-10-03T21:24:36.673Z,1.23
2023-10-03T21:27:05.409Z,1.20
2023-10-03T21:29:34.705Z,2.00
2023-10-03T21:32:05.360Z,1.75
2023-10-03T21:34:36.914Z,1.08
2023-10-03T21:37:07.470Z,1.40
2023-10-03T21:39:36.924Z,1.27
2023-10-03T21:42:06.078Z,1.35
2023-10-03T21:44:35.185Z,1.80
2023-10-03T21:47:04.417Z,1.33
2023-10-03T21:49:35.905Z,1.33
2023-10-03T21:52:06.372Z,1.30
2023-10-03T21:54:35.087Z,1.87
2023-10-03T21:57:03.946Z,1.27
2023-10-03T21:59:32.956Z,1.20
2023-10-03T22:02:01.652Z,1.65
2023-10-03T22:04:30.658Z,1.50
2023-10-03T22:06:59.361Z,1.05
2023-10-03T22:09:29.469Z,1.23
2023-10-03T22:11:58.567Z,1.75
2023-10-03T22:14:27.928Z,1.27
2023-10-03T22:16:56.677Z,1.50
2023-10-03T22:19:25.630Z,1.90
2023-10-03T22:21:54.558Z,1.33
2023-10-03T22:24:23.460Z,1.48
2023-10-03T22:26:54.021Z,1.65
2023-10-03T22:29:22.672Z,1.70
2023-10-03T22:31:51.577Z,1.58
2023-10-03T22:34:21.047Z,1.98
2023-10-03T22:36:49.685Z,1.85
2023-10-03T22:39:18.385Z,1.33
2023-10-03T22:41:47.386Z,1.92
2023-10-03T22:44:17.445Z,1.30
2023-10-03T22:46:46.087Z,1.27
2023-10-03T22:49:15.088Z,1.35
2023-10-03T22:51:43.858Z,1.60
2023-10-03T22:54:12.615Z,1.58
2023-10-03T22:56:41.567Z,1.40
2023-10-03T22:59:11.371Z,1.83
2023-10-03T23:01:41.963Z,2.55
2023-10-03T23:04:10.982Z,1.60
2023-10-03T23:06:43.130Z,1.45
2023-10-03T23:09:12.179Z,1.27
2023-10-03T23:11:40.840Z,1.55
2023-10-03T23:14:09.512Z,1.80
2023-10-03T23:16:38.473Z,1.40
2023-10-03T23:19:08.723Z,1.23
2023-10-03T23:21:37.347Z,1.57
2023-10-03T23:24:11.093Z,1.67
2023-10-03T23:26:39.847Z,1.80
2023-10-03T23:29:08.767Z,1.12
2023-10-03T23:31:37.894Z,2.10
2023-10-03T23:34:08.223Z,1.87
2023-10-03T23:36:37.233Z,1.50
2023-10-03T23:39:07.618Z,1.67
2023-10-03T23:41:37.104Z,1.80
2023-10-03T23:44:07.632Z,1.75
2023-10-03T23:46:36.370Z,1.47
2023-10-03T23:49:06.080Z,1.92
2023-10-03T23:51:36.685Z,1.55
2023-10-03T23:54:11.148Z,2.47
2023-10-03T23:56:44.462Z,1.70
2023-10-03T23:59:13.144Z,2.05
